createdAt,value
2018-01-22T00:00:02.991Z,0.00
2018-01-22T00:01:02.926Z,0.00
2018-01-22T00:02:02.834Z,0.00
2018-01-22T00:03:02.722Z,0.00
2018-01-22T00:04:02.665Z,0.00
2018-01-22T00:05:02.527Z,0.00
2018-01-22T00:06:02.459Z,0.00
2018-01-22T00:07:02.351Z,0.00
2018-01-22T00:08:02.272Z,0.00
2018-01-22T00:09:02.246Z,0.00
2018-01-22T00:10:02.142Z,0.00
2018-01-22T00:11:02.006Z,0.00
2018-01-22T00:12:01.928Z,0.00
2018-01-22T00:13:01.834Z,0.00
2018-01-22T00:14:01.807Z,0.00
2018-01-22T00:15:01.662Z,0.00
2018-01-22T00:16:01.605Z,0.00
2018-01-22T00:17:01.525Z,0.00
2018-01-22T00:18:01.408Z,0.00
2018-01-22T00:19:01.358Z,0.00
2018-01-22T00:20:01.226Z,0.00
2018-01-22T00:21:01.141Z,0.00
2018-01-22T00:22:01.083Z,0.00
2018-01-22T00:23:01.021Z,0.00
2018-01-22T00:24:00.902Z,0.00
2018-01-22T00:25:00.821Z,0.00
2018-01-22T00:26:00.710Z,0.00
2018-01-22T00:27:00.619Z,0.00
2018-01-22T00:28:00.611Z,0.00
2018-01-22T00:29:00.449Z,0.00
2018-01-22T00:30:00.364Z,0.00
2018-01-22T00:31:00.317Z,0.00
2018-01-22T00:32:00.241Z,0.00
2018-01-22T00:33:00.143Z,0.00
2018-01-22T00:34:00.056Z,0.00
2018-01-22T00:34:59.925Z,0.00
2018-01-22T00:35:59.840Z,0.00
2018-01-22T00:36:59.784Z,0.00
2018-01-22T00:37:59.709Z,0.00
2018-01-22T00:38:59.618Z,0.00
2018-01-22T00:39:59.495Z,0.00
2018-01-22T00:40:59.409Z,0.00
2018-01-22T00:41:59.350Z,0.00
2018-01-22T00:42:59.236Z,0.00
2018-01-22T00:43:59.216Z,0.00
2018-01-22T00:44:59.063Z,0.00
2018-01-22T00:45:58.976Z,0.00
2018-01-22T00:46:58.888Z,0.00
2018-01-22T00:47:58.817Z,0.00
2018-01-22T00:48:58.741Z,0.00
2018-01-22T00:49:58.662Z,0.00
2018-01-22T00:50:58.551Z,0.00
2018-01-22T00:51:58.513Z,0.00
2018-01-22T00:52:58.371Z,0.00
2018-01-22T00:53:58.280Z,0.00
2018-01-22T00:54:58.238Z,0.00
2018-01-22T00:55:58.154Z,0.00
2018-01-22T00:56:58.069Z,0.00
2018-01-22T00:57:58.006Z,0.00
2018-01-22T00:58:57.856Z,0.00
2018-01-22T00:59:57.809Z,0.00
2018-01-22T01:00:57.704Z,0.00
2018-01-22T01:01:57.633Z,0.00
2018-01-22T01:02:57.503Z,0.00
2018-01-22T01:03:57.427Z,0.00
2018-01-22T01:04:57.332Z,0.00
2018-01-22T01:05:57.243Z,0.00
2018-01-22T01:06:57.158Z,0.00
2018-01-22T01:07:57.069Z,0.00
2018-01-22T01:08:56.990Z,0.00
2018-01-22T01:09:56.914Z,0.00
2018-01-22T01:10:56.837Z,0.00
2018-01-22T01:11:56.724Z,0.00
2018-01-22T01:12:56.644Z,0.00
2018-01-22T01:13:56.552Z,0.00
2018-01-22T01:14:56.504Z,0.00
2018-01-22T01:15:56.375Z,0.00
2018-01-22T01:16:56.294Z,0.00
2018-01-22T01:17:56.206Z,0.00
2018-01-22T01:18:56.157Z,0.00
2018-01-22T01:19:56.126Z,0.00
2018-01-22T01:20:55.951Z,0.00
2018-01-22T01:21:55.858Z,0.00
2018-01-22T01:22:55.792Z,0.00
2018-01-22T01:23:55.683Z,0.00
2018-01-22T01:24:55.603Z,0.00
2018-01-22T01:25:55.559Z,0.00
2018-01-22T01:26:55.426Z,0.00
2018-01-22T01:27:55.405Z,0.00
2018-01-22T01:28:55.292Z,0.00
2018-01-22T01:29:55.165Z,0.00
2018-01-22T01:30:55.122Z,0.00
2018-01-22T01:31:55.024Z,0.00
2018-01-22T01:32:54.932Z,0.00
2018-01-22T01:33:54.839Z,0.00
2018-01-22T01:34:54.731Z,0.00
2018-01-22T01:35:54.644Z,0.00
2018-01-22T01:36:54.603Z,0.00
2018-01-22T01:37:54.503Z,0.00
2018-01-22T01:38:54.390Z,0.00
2018-01-22T01:39:54.320Z,0.00
2018-01-22T01:40:54.216Z,0.00
2018-01-22T01:41:54.129Z,0.00
2018-01-22T01:42:54.083Z,0.00
2018-01-22T01:43:54.023Z,0.00
2018-01-22T01:44:53.902Z,0.00
2018-01-22T01:45:53.783Z,0.00
2018-01-22T01:46:53.693Z,0.00
2018-01-22T01:47:53.605Z,0.00
2018-01-22T01:48:53.563Z,0.00
2018-01-22T01:49:53.464Z,0.00
2018-01-22T01:50:53.343Z,0.00
2018-01-22T01:51:53.361Z,0.00
2018-01-22T01:52:53.175Z,0.00
2018-01-22T01:53:53.114Z,0.00
2018-01-22T01:54:53.026Z,0.00
2018-01-22T01:55:52.951Z,0.00
2018-01-22T01:56:52.833Z,0.00
2018-01-22T01:57:52.769Z,0.00
2018-01-22T01:58:52.676Z,0.00
2018-01-22T01:59:52.565Z,0.00
2018-01-22T02:00:52.496Z,0.00
2018-01-22T02:01:52.392Z,0.00
2018-01-22T02:02:52.312Z,0.00
2018-01-22T02:03:52.260Z,0.00
2018-01-22T02:04:52.164Z,0.00
2018-01-22T02:05:52.043Z,0.00
2018-01-22T02:06:51.997Z,0.00
2018-01-22T02:07:51.879Z,0.00
2018-01-22T02:08:51.833Z,0.00
2018-01-22T02:09:51.707Z,0.00
2018-01-22T02:10:51.654Z,0.00
2018-01-22T02:11:51.529Z,0.00
2018-01-22T02:12:51.496Z,0.00
2018-01-22T02:13:51.354Z,0.00
2018-01-22T02:14:51.306Z,0.00
2018-01-22T02:15:51.238Z,0.00
2018-01-22T02:16:51.167Z,0.00
2018-01-22T02:17:51.008Z,0.00
2018-01-22T02:18:50.956Z,0.00
2018-01-22T02:19:50.860Z,0.00
2018-01-22T02:20:50.749Z,0.00
2018-01-22T02:21:50.661Z,0.00
2018-01-22T02:22:50.573Z,0.00
2018-01-22T02:23:50.527Z,0.00
2018-01-22T02:24:50.405Z,0.00
2018-01-22T02:25:50.374Z,0.00
2018-01-22T02:26:50.290Z,0.00
2018-01-22T02:27:50.182Z,0.00
2018-01-22T02:28:50.058Z,0.00
2018-01-22T02:29:49.970Z,0.00
2018-01-22T02:30:49.912Z,0.00
2018-01-22T02:31:49.805Z,0.00
2018-01-22T02:32:49.738Z,0.00
2018-01-22T02:33:49.653Z,0.00
2018-01-22T02:34:49.536Z,0.00
2018-01-22T02:35:49.447Z,0.00
2018-01-22T02:36:49.370Z,0.00
2018-01-22T02:37:49.280Z,0.00
2018-01-22T02:38:49.192Z,0.00
2018-01-22T02:39:49.103Z,0.00
2018-01-22T02:40:49.023Z,0.00
2018-01-22T02:41:48.954Z,0.00
2018-01-22T02:42:48.844Z,0.00
2018-01-22T02:43:48.819Z,0.00
2018-01-22T02:44:48.681Z,0.00
2018-01-22T02:45:48.589Z,0.00
2018-01-22T02:46:48.580Z,0.00
2018-01-22T02:47:48.413Z,0.00
2018-01-22T02:48:48.325Z,0.00
2018-01-22T02:49:48.241Z,0.00
2018-01-22T02:50:48.203Z,0.00
2018-01-22T02:51:48.065Z,0.00
2018-01-22T02:52:47.981Z,0.00
2018-01-22T02:53:47.960Z,0.00
2018-01-22T02:54:47.809Z,0.00
2018-01-22T02:55:47.722Z,0.00
2018-01-22T02:56:47.667Z,0.00
2018-01-22T02:57:47.548Z,0.00
2018-01-22T02:58:47.495Z,0.00
2018-01-22T02:59:47.408Z,0.00
2018-01-22T03:00:47.299Z,0.00
2018-01-22T03:01:47.213Z,0.00
2018-01-22T03:02:47.141Z,0.00
2018-01-22T03:03:47.049Z,0.00
2018-01-22T03:04:46.993Z,0.00
2018-01-22T03:05:46.928Z,0.00
2018-01-22T03:06:46.789Z,0.00
2018-01-22T03:07:46.714Z,0.00
2018-01-22T03:08:46.595Z,0.00
2018-01-22T03:09:46.550Z,0.00
2018-01-22T03:10:46.439Z,0.00
2018-01-22T03:11:46.337Z,0.00
2018-01-22T03:12:46.291Z,0.00
2018-01-22T03:13:46.195Z,0.00
2018-01-22T03:14:46.114Z,0.00
2018-01-22T03:15:45.991Z,0.00
2018-01-22T03:16:45.905Z,0.00
2018-01-22T03:17:45.824Z,0.00
2018-01-22T03:18:45.730Z,0.00
2018-01-22T03:19:45.644Z,0.00
2018-01-22T03:20:45.628Z,0.00
2018-01-22T03:21:45.549Z,0.00
2018-01-22T03:22:45.387Z,0.00
2018-01-22T03:23:45.298Z,0.00
2018-01-22T03:24:45.213Z,0.00
2018-01-22T03:25:45.127Z,0.00
2018-01-22T03:26:45.039Z,0.00
2018-01-22T03:27:44.989Z,0.00
2018-01-22T03:28:44.862Z,0.00
2018-01-22T03:29:44.782Z,0.00
2018-01-22T03:30:44.698Z,0.00
2018-01-22T03:31:44.633Z,0.00
2018-01-22T03:32:44.552Z,0.00
2018-01-22T03:33:44.477Z,0.00
2018-01-22T03:34:44.359Z,0.00
2018-01-22T03:35:44.261Z,0.00
2018-01-22T03:36:44.178Z,0.00
2018-01-22T03:37:44.142Z,0.00
2018-01-22T03:38:44.026Z,0.00
2018-01-22T03:39:43.983Z,0.00
2018-01-22T03:40:43.831Z,0.00
2018-01-22T03:41:43.750Z,0.00
2018-01-22T03:42:43.656Z,0.00
2018-01-22T03:43:43.579Z,0.00
2018-01-22T03:44:43.482Z,0.00
2018-01-22T03:45:43.414Z,0.00
2018-01-22T03:46:43.308Z,0.00
2018-01-22T03:47:43.222Z,0.00
2018-01-22T03:48:43.148Z,0.00
2018-01-22T03:49:43.055Z,0.00
2018-01-22T03:50:42.966Z,0.00
2018-01-22T03:51:42.917Z,0.00
2018-01-22T03:52:42.805Z,0.00
2018-01-22T03:53:42.733Z,0.00
2018-01-22T03:54:42.642Z,0.00
2018-01-22T03:55:42.577Z,0.00
2018-01-22T03:56:42.459Z,0.00
2018-01-22T03:57:42.399Z,0.00
2018-01-22T03:58:42.268Z,0.00
2018-01-22T03:59:42.213Z,0.00
2018-01-22T04:00:42.113Z,0.00
2018-01-22T04:01:42.077Z,0.00
2018-01-22T04:02:41.924Z,0.00
2018-01-22T04:03:41.836Z,0.00
2018-01-22T04:04:41.809Z,0.00
2018-01-22T04:05:41.671Z,0.00
2018-01-22T04:06:41.592Z,0.00
2018-01-22T04:07:41.526Z,0.00
2018-01-22T04:08:41.412Z,0.00
2018-01-22T04:09:41.328Z,0.00
2018-01-22T04:10:41.232Z,0.00
2018-01-22T04:11:41.179Z,0.00
2018-01-22T04:12:41.063Z,0.00
2018-01-22T04:13:40.970Z,0.00
2018-01-22T04:14:40.932Z,0.00
2018-01-22T04:15:40.805Z,0.00
2018-01-22T04:16:40.720Z,0.00
2018-01-22T04:17:40.655Z,0.00
2018-01-22T04:18:40.596Z,0.00
2018-01-22T04:19:40.459Z,0.00
2018-01-22T04:20:40.428Z,0.00
2018-01-22T04:21:40.282Z,0.00
2018-01-22T04:22:40.236Z,0.00
2018-01-22T04:23:40.112Z,0.00
2018-01-22T04:24:40.079Z,0.00
2018-01-22T04:25:39.964Z,0.00
2018-01-22T04:26:39.884Z,0.00
2018-01-22T04:27:39.842Z,0.00
2018-01-22T04:28:39.709Z,0.00
2018-01-22T04:29:39.605Z,0.00
2018-01-22T04:30:39.514Z,0.00
2018-01-22T04:31:39.485Z,0.00
2018-01-22T04:32:39.336Z,0.00
2018-01-22T04:33:39.246Z,0.00
2018-01-22T04:34:39.180Z,0.00
2018-01-22T04:35:39.135Z,0.00
2018-01-22T04:36:38.992Z,0.00
2018-01-22T04:37:38.906Z,0.00
2018-01-22T04:38:38.809Z,0.00
2018-01-22T04:39:38.730Z,0.00
2018-01-22T04:40:38.639Z,0.00
2018-01-22T04:41:38.590Z,0.00
2018-01-22T04:42:38.533Z,0.00
2018-01-22T04:43:38.429Z,0.00
2018-01-22T04:44:38.296Z,0.00
2018-01-22T04:45:38.240Z,0.00
2018-01-22T04:46:38.153Z,0.00
2018-01-22T04:47:38.112Z,0.00
2018-01-22T04:48:37.996Z,0.00
2018-01-22T04:49:37.870Z,0.00
2018-01-22T04:50:37.802Z,0.00
2018-01-22T04:51:37.714Z,0.00
2018-01-22T04:52:37.654Z,0.00
2018-01-22T04:53:37.549Z,0.00
2018-01-22T04:54:37.458Z,0.00
2018-01-22T04:55:37.347Z,0.00
2018-01-22T04:56:37.322Z,0.00
2018-01-22T04:57:37.210Z,0.00
2018-01-22T04:58:37.103Z,0.00
2018-01-22T04:59:37.022Z,0.00
2018-01-22T05:00:36.917Z,0.00
2018-01-22T05:01:36.851Z,0.00
2018-01-22T05:02:36.766Z,0.00
2018-01-22T05:03:36.684Z,0.00
2018-01-22T05:04:36.572Z,0.00
2018-01-22T05:05:36.524Z,0.00
2018-01-22T05:06:36.473Z,0.00
2018-01-22T05:07:36.366Z,0.00
2018-01-22T05:08:36.254Z,0.00
2018-01-22T05:09:36.185Z,0.00
2018-01-22T05:10:36.099Z,0.00
2018-01-22T05:11:35.997Z,0.00
2018-01-22T05:12:35.878Z,0.00
2018-01-22T05:13:35.861Z,0.00
2018-01-22T05:14:35.707Z,0.00
2018-01-22T05:15:35.614Z,0.00
2018-01-22T05:16:35.564Z,0.00
2018-01-22T05:17:35.441Z,0.00
2018-01-22T05:18:35.355Z,0.00
2018-01-22T05:19:35.307Z,0.00
2018-01-22T05:20:35.182Z,0.00
2018-01-22T05:21:35.101Z,0.00
2018-01-22T05:22:35.014Z,0.00
2018-01-22T05:23:34.922Z,0.00
2018-01-22T05:24:34.862Z,0.00
2018-01-22T05:25:34.782Z,0.00
2018-01-22T05:26:34.675Z,0.00
2018-01-22T05:27:34.622Z,0.00
2018-01-22T05:28:34.527Z,0.00
2018-01-22T05:29:34.423Z,0.00
2018-01-22T05:30:34.357Z,0.00
2018-01-22T05:31:34.298Z,0.00
2018-01-22T05:32:34.161Z,0.00
2018-01-22T05:33:34.141Z,0.00
2018-01-22T05:34:34.014Z,0.00
2018-01-22T05:35:33.891Z,0.00
2018-01-22T05:36:33.822Z,0.00
2018-01-22T05:37:33.807Z,0.00
2018-01-22T05:38:33.631Z,0.00
2018-01-22T05:39:33.563Z,0.00
2018-01-22T05:40:33.538Z,0.00
2018-01-22T05:41:33.436Z,0.00
2018-01-22T05:42:33.299Z,0.00
2018-01-22T05:43:33.238Z,0.00
2018-01-22T05:44:33.131Z,0.00
2018-01-22T05:45:33.036Z,0.00
2018-01-22T05:46:32.937Z,0.00
2018-01-22T05:47:32.853Z,0.00
2018-01-22T05:48:32.794Z,0.00
2018-01-22T05:49:32.754Z,0.00
2018-01-22T05:50:32.605Z,0.00
2018-01-22T05:51:32.562Z,0.00
2018-01-22T05:52:32.499Z,0.00
2018-01-22T05:53:32.380Z,0.00
2018-01-22T05:54:32.347Z,0.00
2018-01-22T05:55:32.285Z,0.00
2018-01-22T05:56:32.173Z,0.00
2018-01-22T05:57:32.021Z,0.00
2018-01-22T05:58:32.006Z,0.00
2018-01-22T05:59:31.873Z,0.00
2018-01-22T06:00:31.796Z,0.00
2018-01-22T06:01:31.646Z,0.00
2018-01-22T06:02:31.570Z,0.00
2018-01-22T06:03:31.489Z,0.00
2018-01-22T06:04:31.421Z,0.00
2018-01-22T06:05:31.427Z,0.00
2018-01-22T06:06:31.233Z,0.00
2018-01-22T06:07:31.135Z,0.00
2018-01-22T06:08:31.065Z,0.00
2018-01-22T06:09:30.995Z,0.00
2018-01-22T06:10:30.953Z,0.00
2018-01-22T06:11:30.816Z,0.00
2018-01-22T06:12:30.758Z,0.00
2018-01-22T06:13:30.654Z,0.00
2018-01-22T06:14:30.560Z,0.00
2018-01-22T06:15:30.483Z,0.00
2018-01-22T06:16:30.416Z,0.00
2018-01-22T06:17:30.329Z,0.00
2018-01-22T06:18:30.199Z,0.00
2018-01-22T06:19:30.152Z,0.00
2018-01-22T06:20:30.029Z,0.00
2018-01-22T06:21:29.990Z,0.00
2018-01-22T06:22:29.848Z,0.00
2018-01-22T06:23:29.811Z,0.00
2018-01-22T06:24:29.688Z,0.00
2018-01-22T06:25:29.631Z,0.00
2018-01-22T06:26:29.495Z,0.00
2018-01-22T06:27:29.454Z,0.00
2018-01-22T06:28:29.389Z,0.00
2018-01-22T06:29:29.269Z,0.00
2018-01-22T06:30:29.193Z,0.00
2018-01-22T06:31:29.090Z,0.00
2018-01-22T06:32:29.122Z,0.00
2018-01-22T06:33:28.920Z,0.00
2018-01-22T06:34:28.804Z,0.00
2018-01-22T06:35:28.792Z,0.00
2018-01-22T06:36:28.676Z,0.00
2018-01-22T06:37:28.636Z,0.00
2018-01-22T06:38:28.542Z,0.00
2018-01-22T06:39:28.572Z,0.00
2018-01-22T06:40:28.350Z,0.00
2018-01-22T06:41:28.210Z,0.00
2018-01-22T06:42:28.172Z,0.00
2018-01-22T06:43:28.089Z,0.00
2018-01-22T06:44:27.997Z,0.00
2018-01-22T06:45:27.919Z,0.00
2018-01-22T06:46:27.783Z,0.00
2018-01-22T06:47:27.754Z,0.00
2018-01-22T06:48:27.597Z,0.00
2018-01-22T06:49:27.583Z,0.00
2018-01-22T06:50:27.464Z,0.00
2018-01-22T06:51:27.351Z,0.00
2018-01-22T06:52:27.356Z,0.00
2018-01-22T06:53:27.172Z,0.00
2018-01-22T06:54:27.164Z,0.00
2018-01-22T06:55:26.991Z,0.00
2018-01-22T06:56:26.940Z,0.00
2018-01-22T06:57:26.827Z,0.00
2018-01-22T06:58:26.751Z,0.00
2018-01-22T06:59:26.726Z,0.00
2018-01-22T07:00:26.617Z,0.00
2018-01-22T07:01:26.534Z,0.00
2018-01-22T07:02:26.471Z,0.00
2018-01-22T07:03:26.331Z,0.00
2018-01-22T07:04:26.315Z,0.00
2018-01-22T07:05:26.259Z,0.00
2018-01-22T07:06:26.163Z,0.00
2018-01-22T07:07:26.078Z,0.00
2018-01-22T07:08:25.906Z,0.00
2018-01-22T07:09:25.799Z,0.00
2018-01-22T07:10:25.776Z,0.00
2018-01-22T07:11:25.799Z,5.63
2018-01-22T07:12:25.589Z,5.63
2018-01-22T07:13:25.470Z,5.63
2018-01-22T07:14:25.394Z,5.63
2018-01-22T07:15:25.334Z,5.63
2018-01-22T07:16:25.247Z,5.63
2018-01-22T07:17:25.183Z,5.63
2018-01-22T07:18:25.085Z,5.63
2018-01-22T07:19:24.922Z,5.63
2018-01-22T07:20:24.915Z,11.25
2018-01-22T07:21:24.797Z,11.25
2018-01-22T07:22:24.712Z,11.25
2018-01-22T07:23:24.593Z,11.25
2018-01-22T07:24:24.517Z,11.25
2018-01-22T07:25:24.432Z,11.25
2018-01-22T07:26:24.298Z,11.25
2018-01-22T07:27:24.226Z,11.25
2018-01-22T07:28:24.163Z,11.25
2018-01-22T07:29:24.051Z,11.25
2018-01-22T07:30:23.984Z,11.25
2018-01-22T07:31:23.907Z,11.25
2018-01-22T07:32:23.832Z,11.25
2018-01-22T07:33:23.757Z,11.25
2018-01-22T07:34:23.650Z,11.25
2018-01-22T07:35:23.640Z,11.25
2018-01-22T07:36:23.460Z,11.25
2018-01-22T07:37:23.380Z,11.25
2018-01-22T07:38:23.320Z,11.25
2018-01-22T07:39:23.266Z,11.25
2018-01-22T07:40:23.170Z,11.25
2018-01-22T07:41:24.736Z,11.25
2018-01-22T07:42:22.991Z,11.25
2018-01-22T07:43:22.855Z,11.25
2018-01-22T07:44:22.757Z,11.25
2018-01-22T07:45:22.669Z,11.25
2018-01-22T07:46:22.572Z,16.88
2018-01-22T07:47:22.530Z,16.88
2018-01-22T07:48:22.423Z,16.88
2018-01-22T07:49:22.330Z,22.50
2018-01-22T07:50:22.240Z,22.50
2018-01-22T07:51:22.195Z,28.13
2018-01-22T07:52:22.132Z,28.13
2018-01-22T07:53:22.014Z,33.75
2018-01-22T07:54:21.931Z,33.75
2018-01-22T07:55:21.850Z,39.38
2018-01-22T07:56:21.774Z,39.38
2018-01-22T07:57:21.640Z,39.38
2018-01-22T07:58:21.571Z,39.38
2018-01-22T07:59:21.521Z,45.00
2018-01-22T08:00:21.417Z,45.00
2018-01-22T08:01:21.335Z,45.00
2018-01-22T08:02:21.185Z,45.00
2018-01-22T08:03:21.177Z,45.00
2018-01-22T08:04:21.068Z,39.38
2018-01-22T08:05:20.976Z,33.75
2018-01-22T08:06:20.844Z,33.75
2018-01-22T08:07:20.834Z,33.75
2018-01-22T08:08:20.687Z,33.75
2018-01-22T08:09:20.627Z,33.75
2018-01-22T08:10:20.559Z,33.75
2018-01-22T08:11:20.483Z,33.75
2018-01-22T08:12:20.348Z,33.75
2018-01-22T08:13:20.300Z,33.75
2018-01-22T08:14:20.190Z,39.38
2018-01-22T08:15:20.084Z,39.38
2018-01-22T08:16:20.013Z,39.38
2018-01-22T08:17:19.944Z,39.38
2018-01-22T08:18:19.928Z,39.38
2018-01-22T08:19:19.746Z,45.00
2018-01-22T08:20:19.694Z,45.00
2018-01-22T08:21:19.590Z,45.00
2018-01-22T08:22:19.534Z,45.00
2018-01-22T08:23:19.409Z,45.00
2018-01-22T08:24:19.314Z,45.00
2018-01-22T08:25:19.247Z,45.00
2018-01-22T08:26:19.139Z,50.63
2018-01-22T08:27:19.077Z,50.63
2018-01-22T08:28:19.037Z,50.63
2018-01-22T08:29:19.010Z,56.25
2018-01-22T08:30:18.869Z,56.25
2018-01-22T08:31:18.748Z,50.63
2018-01-22T08:32:18.665Z,50.63
2018-01-22T08:33:18.565Z,50.63
2018-01-22T08:34:18.428Z,45.00
2018-01-22T08:35:18.353Z,39.38
2018-01-22T08:36:18.307Z,39.38
2018-01-22T08:37:18.175Z,39.38
2018-01-22T08:38:18.131Z,39.38
2018-01-22T08:39:18.029Z,39.38
2018-01-22T08:40:17.989Z,39.38
2018-01-22T08:41:17.843Z,45.00
2018-01-22T08:42:17.790Z,45.00
2018-01-22T08:43:17.695Z,50.63
2018-01-22T08:44:17.643Z,50.63
2018-01-22T08:45:17.573Z,50.63
2018-01-22T08:46:17.433Z,50.63
2018-01-22T08:47:17.342Z,50.63
2018-01-22T08:48:17.300Z,50.63
2018-01-22T08:49:17.178Z,50.63
2018-01-22T08:50:17.109Z,50.63
2018-01-22T08:51:16.987Z,50.63
2018-01-22T08:52:16.912Z,50.63
2018-01-22T08:53:16.801Z,50.63
2018-01-22T08:54:16.712Z,56.25
2018-01-22T08:55:16.685Z,56.25
2018-01-22T08:56:16.576Z,61.88
2018-01-22T08:57:16.487Z,67.50
2018-01-22T08:58:16.396Z,73.13
2018-01-22T08:59:16.368Z,78.75
2018-01-22T09:00:16.231Z,84.38
2018-01-22T09:01:16.137Z,84.38
2018-01-22T09:02:16.018Z,84.38
2018-01-22T09:03:16.020Z,90.00
2018-01-22T09:04:15.918Z,95.63
2018-01-22T09:05:15.819Z,95.63
2018-01-22T09:06:15.721Z,90.00
2018-01-22T09:07:15.634Z,90.00
2018-01-22T09:08:15.555Z,84.38
2018-01-22T09:09:15.490Z,78.75
2018-01-22T09:10:15.427Z,78.75
2018-01-22T09:11:15.288Z,78.75
2018-01-22T09:12:15.214Z,78.75
2018-01-22T09:13:15.218Z,73.13
2018-01-22T09:14:15.053Z,67.50
2018-01-22T09:15:14.935Z,61.88
2018-01-22T09:16:14.875Z,56.25
2018-01-22T09:17:14.757Z,50.63
2018-01-22T09:18:14.781Z,50.63
2018-01-22T09:19:14.606Z,56.25
2018-01-22T09:20:14.553Z,61.88
2018-01-22T09:21:14.491Z,67.50
2018-01-22T09:22:14.379Z,73.13
2018-01-22T09:23:14.232Z,73.13
2018-01-22T09:24:14.193Z,73.13
2018-01-22T09:25:14.134Z,73.13
2018-01-22T09:26:14.012Z,61.88
2018-01-22T09:27:13.949Z,56.25
2018-01-22T09:28:13.886Z,50.63
2018-01-22T09:29:13.824Z,50.63
2018-01-22T09:30:13.704Z,50.63
2018-01-22T09:31:13.562Z,61.88
2018-01-22T09:32:13.555Z,61.88
2018-01-22T09:33:13.368Z,61.88
2018-01-22T09:34:13.325Z,56.25
2018-01-22T09:35:13.255Z,56.25
2018-01-22T09:36:13.260Z,61.88
2018-01-22T09:37:13.091Z,61.88
2018-01-22T09:38:12.979Z,67.50
2018-01-22T09:39:13.010Z,67.50
2018-01-22T09:40:12.886Z,67.50
2018-01-22T09:41:12.768Z,67.50
2018-01-22T09:42:12.661Z,67.50
2018-01-22T09:43:12.564Z,67.50
2018-01-22T09:44:12.449Z,67.50
2018-01-22T09:45:12.453Z,61.88
2018-01-22T09:46:12.254Z,61.88
2018-01-22T09:47:12.247Z,56.25
2018-01-22T09:48:12.197Z,56.25
2018-01-22T09:49:12.025Z,61.88
2018-01-22T09:50:12.013Z,56.25
2018-01-22T09:51:11.978Z,56.25
2018-01-22T09:52:11.835Z,56.25
2018-01-22T09:53:11.700Z,56.25
2018-01-22T09:54:11.690Z,61.88
2018-01-22T09:55:11.500Z,56.25
2018-01-22T09:56:11.524Z,56.25
2018-01-22T09:57:11.370Z,56.25
2018-01-22T09:58:11.297Z,56.25
2018-01-22T09:59:11.198Z,50.63
2018-01-22T10:00:11.153Z,50.63
2018-01-22T10:01:10.998Z,50.63
2018-01-22T10:02:10.917Z,50.63
2018-01-22T10:03:10.841Z,50.63
2018-01-22T10:04:10.712Z,56.25
2018-01-22T10:05:10.694Z,61.88
2018-01-22T10:06:10.595Z,61.88
2018-01-22T10:07:10.483Z,67.50
2018-01-22T10:08:10.397Z,73.13
2018-01-22T10:09:10.282Z,73.13
2018-01-22T10:10:10.215Z,78.75
2018-01-22T10:11:10.181Z,84.38
2018-01-22T10:12:10.055Z,78.75
2018-01-22T10:13:09.973Z,84.38
2018-01-22T10:14:09.879Z,84.38
2018-01-22T10:15:09.805Z,90.00
2018-01-22T10:16:09.712Z,90.00
2018-01-22T10:17:09.644Z,90.00
2018-01-22T10:18:09.635Z,90.00
2018-01-22T10:19:09.511Z,84.38
2018-01-22T10:20:09.434Z,84.38
2018-01-22T10:21:09.306Z,78.75
2018-01-22T10:22:09.214Z,78.75
2018-01-22T10:23:09.133Z,73.13
2018-01-22T10:24:09.114Z,67.50
2018-01-22T10:25:08.988Z,61.88
2018-01-22T10:26:08.899Z,61.88
2018-01-22T10:27:08.795Z,56.25
2018-01-22T10:28:08.746Z,50.63
2018-01-22T10:29:08.681Z,50.63
2018-01-22T10:30:08.582Z,45.00
2018-01-22T10:31:08.447Z,50.63
2018-01-22T10:32:08.403Z,50.63
2018-01-22T10:33:08.420Z,56.25
2018-01-22T10:34:08.149Z,56.25
2018-01-22T10:35:08.142Z,61.88
2018-01-22T10:36:08.029Z,67.50
2018-01-22T10:37:07.985Z,67.50
2018-01-22T10:38:07.906Z,67.50
2018-01-22T10:39:07.768Z,67.50
2018-01-22T10:40:07.664Z,73.13
2018-01-22T10:41:07.730Z,73.13
2018-01-22T10:42:07.540Z,73.13
2018-01-22T10:43:07.382Z,73.13
2018-01-22T10:44:07.383Z,73.13
2018-01-22T10:45:07.251Z,73.13
2018-01-22T10:46:07.135Z,78.75
2018-01-22T10:47:07.061Z,90.00
2018-01-22T10:48:07.058Z,90.00
2018-01-22T10:49:06.927Z,90.00
2018-01-22T10:50:06.887Z,90.00
2018-01-22T10:51:06.752Z,90.00
2018-01-22T10:52:06.651Z,84.38
2018-01-22T10:53:06.573Z,90.00
2018-01-22T10:54:06.480Z,84.38
2018-01-22T10:55:06.399Z,84.38
2018-01-22T10:56:06.404Z,84.38
2018-01-22T10:57:06.275Z,84.38
2018-01-22T10:58:06.271Z,90.00
2018-01-22T10:59:06.055Z,95.63
2018-01-22T11:00:05.959Z,90.00
2018-01-22T11:01:05.869Z,90.00
2018-01-22T11:02:05.851Z,95.63
2018-01-22T11:03:05.664Z,78.75
2018-01-22T11:04:05.685Z,67.50
2018-01-22T11:05:05.586Z,61.88
2018-01-22T11:06:05.477Z,61.88
2018-01-22T11:07:05.391Z,56.25
2018-01-22T11:08:05.280Z,61.88
2018-01-22T11:09:05.163Z,61.88
2018-01-22T11:10:05.116Z,61.88
2018-01-22T11:11:05.012Z,67.50
2018-01-22T11:12:04.966Z,73.13
2018-01-22T11:13:04.894Z,78.75
2018-01-22T11:14:04.782Z,78.75
2018-01-22T11:15:04.676Z,84.38
2018-01-22T11:16:04.642Z,90.00
2018-01-22T11:17:04.510Z,95.63
2018-01-22T11:18:04.466Z,95.63
2018-01-22T11:19:04.342Z,101.25
2018-01-22T11:20:04.294Z,101.25
2018-01-22T11:21:04.228Z,90.00
2018-01-22T11:22:04.115Z,78.75
2018-01-22T11:23:04.094Z,67.50
2018-01-22T11:24:03.917Z,73.13
2018-01-22T11:25:03.878Z,84.38
2018-01-22T11:26:03.772Z,78.75
2018-01-22T11:27:03.696Z,73.13
2018-01-22T11:28:03.629Z,78.75
2018-01-22T11:29:03.513Z,78.75
2018-01-22T11:30:03.444Z,78.75
2018-01-22T11:31:03.384Z,78.75
2018-01-22T11:32:03.246Z,67.50
2018-01-22T11:33:03.184Z,56.25
2018-01-22T11:34:03.155Z,56.25
2018-01-22T11:35:03.086Z,56.25
2018-01-22T11:36:02.950Z,61.88
2018-01-22T11:37:02.870Z,78.75
2018-01-22T11:38:02.757Z,112.50
2018-01-22T11:39:02.656Z,135.00
2018-01-22T11:40:02.613Z,118.13
2018-01-22T11:41:02.511Z,78.75
2018-01-22T11:42:02.444Z,56.25
2018-01-22T11:43:02.262Z,50.63
2018-01-22T11:44:02.198Z,56.25
2018-01-22T11:45:02.172Z,61.88
2018-01-22T11:46:02.086Z,78.75
2018-01-22T11:47:01.984Z,78.75
2018-01-22T11:48:01.859Z,73.13
2018-01-22T11:49:01.789Z,67.50
2018-01-22T11:50:01.721Z,61.88
2018-01-22T11:51:01.649Z,61.88
2018-01-22T11:52:01.559Z,67.50
2018-01-22T11:53:01.444Z,73.13
2018-01-22T11:54:01.391Z,84.38
2018-01-22T11:55:01.298Z,95.63
2018-01-22T11:56:01.218Z,95.63
2018-01-22T11:57:01.141Z,95.63
2018-01-22T11:58:00.997Z,84.38
2018-01-22T11:59:00.910Z,78.75
2018-01-22T12:00:00.899Z,84.38
2018-01-22T12:01:00.783Z,78.75
2018-01-22T12:02:00.694Z,78.75
2018-01-22T12:03:00.576Z,73.13
2018-01-22T12:04:00.519Z,73.13
2018-01-22T12:05:00.440Z,73.13
2018-01-22T12:06:00.367Z,61.88
2018-01-22T12:07:00.299Z,61.88
2018-01-22T12:08:00.142Z,56.25
2018-01-22T12:09:00.201Z,56.25
2018-01-22T12:10:00.042Z,50.63
2018-01-22T12:11:00.020Z,50.63
2018-01-22T12:11:59.949Z,50.63
2018-01-22T12:12:59.720Z,50.63
2018-01-22T12:13:59.641Z,50.63
2018-01-22T12:14:59.652Z,45.00
2018-01-22T12:15:59.539Z,45.00
2018-01-22T12:16:59.442Z,45.00
2018-01-22T12:17:59.381Z,50.63
2018-01-22T12:18:59.292Z,56.25
2018-01-22T12:19:59.192Z,50.63
2018-01-22T12:20:59.086Z,45.00
2018-01-22T12:21:59.021Z,45.00
2018-01-22T12:22:59.012Z,50.63
2018-01-22T12:23:58.834Z,50.63
2018-01-22T12:24:58.759Z,50.63
2018-01-22T12:25:58.624Z,50.63
2018-01-22T12:26:58.567Z,50.63
2018-01-22T12:27:58.484Z,50.63
2018-01-22T12:28:58.373Z,45.00
2018-01-22T12:29:58.311Z,50.63
2018-01-22T12:30:58.217Z,50.63
2018-01-22T12:31:58.151Z,50.63
2018-01-22T12:32:58.097Z,50.63
2018-01-22T12:33:57.939Z,50.63
2018-01-22T12:34:57.860Z,50.63
2018-01-22T12:35:57.767Z,50.63
2018-01-22T12:36:57.688Z,50.63
2018-01-22T12:37:57.646Z,56.25
2018-01-22T12:38:57.547Z,50.63
2018-01-22T12:39:57.544Z,50.63
2018-01-22T12:40:57.368Z,50.63
2018-01-22T12:41:57.320Z,50.63
2018-01-22T12:42:57.182Z,50.63
2018-01-22T12:43:57.090Z,56.25
2018-01-22T12:44:57.015Z,56.25
2018-01-22T12:45:56.959Z,50.63
2018-01-22T12:46:56.858Z,50.63
2018-01-22T12:47:56.754Z,45.00
2018-01-22T12:48:56.670Z,39.38
2018-01-22T12:49:56.604Z,39.38
2018-01-22T12:50:56.500Z,33.75
2018-01-22T12:51:56.446Z,33.75
2018-01-22T12:52:56.353Z,39.38
2018-01-22T12:53:56.260Z,45.00
2018-01-22T12:54:56.201Z,56.25
2018-01-22T12:55:56.099Z,61.88
2018-01-22T12:56:55.998Z,67.50
2018-01-22T12:57:55.916Z,67.50
2018-01-22T12:58:55.830Z,67.50
2018-01-22T12:59:55.762Z,61.88
2018-01-22T13:00:55.686Z,56.25
2018-01-22T13:01:55.629Z,50.63
2018-01-22T13:02:55.500Z,50.63
2018-01-22T13:03:55.429Z,45.00
2018-01-22T13:04:55.319Z,45.00